TimeCST,TemperatureF,Dew PointF,Humidity,Sea Level PressureIn,VisibilityMPH,Wind Direction,Wind SpeedMPH,Gust SpeedMPH,PrecipitationIn,Events,Conditions,WindDirDegrees,DateUTC
12:15 AM,42.8,35.6,76,30.24,10.0,South,12.7,-,N/A,,Clear,180,2012-11-17 06:15:00
12:35 AM,42.8,35.6,76,30.23,10.0,South,10.4,-,N/A,,Clear,170,2012-11-17 06:35:00
12:55 AM,41.0,35.6,81,30.24,10.0,South,9.2,-,N/A,,Clear,180,2012-11-17 06:55:00
1:15 AM,41.0,35.6,81,30.22,10.0,South,10.4,-,N/A,,Clear,180,2012-11-17 07:15:00
1:35 AM,42.8,35.6,76,30.22,10.0,South,12.7,-,N/A,,Clear,190,2012-11-17 07:35:00
1:55 AM,42.8,35.6,76,30.22,10.0,South,11.5,-,N/A,,Clear,190,2012-11-17 07:55:00
2:15 AM,41.0,35.6,81,30.22,10.0,South,11.5,-,N/A,,Clear,190,2012-11-17 08:15:00
2:35 AM,41.0,35.6,81,30.21,10.0,South,9.2,-,N/A,,Clear,190,2012-11-17 08:35:00
2:55 AM,39.2,35.6,87,30.21,10.0,SSW,9.2,-,N/A,,Clear,200,2012-11-17 08:55:00
3:15 AM,41.0,35.6,81,30.22,10.0,SSW,9.2,-,N/A,,Clear,200,2012-11-17 09:15:00
3:55 AM,41.0,35.6,81,30.20,10.0,SSW,10.4,-,N/A,,Clear,200,2012-11-17 09:55:00
4:15 AM,41.0,37.4,87,30.20,10.0,SSW,16.1,-,N/A,,Clear,200,2012-11-17 10:15:00
4:35 AM,42.8,37.4,81,30.19,10.0,SSW,13.8,-,N/A,,Clear,200,2012-11-17 10:35:00
4:55 AM,42.8,37.4,81,30.19,10.0,South,15.0,-,N/A,,Clear,190,2012-11-17 10:55:00
5:15 AM,42.8,37.4,81,30.19,10.0,South,13.8,-,N/A,,Clear,190,2012-11-17 11:15:00
5:35 AM,41.0,37.4,87,30.19,10.0,South,13.8,-,N/A,,Clear,190,2012-11-17 11:35:00
5:55 AM,41.0,37.4,87,30.19,10.0,South,13.8,-,N/A,,Clear,190,2012-11-17 11:55:00
6:15 AM,41.0,35.6,81,30.20,10.0,South,10.4,-,N/A,,Clear,180,2012-11-17 12:15:00
6:35 AM,39.2,35.6,87,30.20,10.0,South,10.4,-,N/A,,Clear,180,2012-11-17 12:35:00
6:55 AM,39.2,35.6,87,30.20,10.0,South,11.5,-,N/A,,Clear,180,2012-11-17 12:55:00
7:15 AM,37.4,35.6,93,30.19,10.0,South,11.5,-,N/A,,Clear,190,2012-11-17 13:15:00
7:35 AM,39.2,35.6,87,30.20,10.0,SSW,12.7,-,N/A,,Clear,200,2012-11-17 13:35:00
7:55 AM,37.4,35.6,93,30.20,10.0,South,12.7,-,N/A,,Clear,180,2012-11-17 13:55:00
8:15 AM,41.0,37.4,87,30.20,10.0,South,11.5,-,N/A,,Clear,190,2012-11-17 14:15:00
8:35 AM,44.6,41.0,87,30.21,10.0,South,12.7,-,N/A,,Clear,190,2012-11-17 14:35:00
8:55 AM,46.4,41.0,81,30.21,10.0,SSW,19.6,24.2,N/A,,Clear,200,2012-11-17 14:55:00
9:15 AM,48.2,41.0,76,30.22,10.0,SSW,18.4,24.2,N/A,,Clear,200,2012-11-17 15:15:00
9:35 AM,48.2,41.0,76,30.23,10.0,SSW,20.7,25.3,N/A,,Clear,210,2012-11-17 15:35:00
9:55 AM,50.0,41.0,71,30.22,10.0,SSW,20.7,-,N/A,,Clear,200,2012-11-17 15:55:00
10:15 AM,51.8,41.0,67,30.23,10.0,SSW,19.6,-,N/A,,Clear,200,2012-11-17 16:15:00
10:35 AM,51.8,41.0,67,30.24,10.0,SSW,17.3,23.0,N/A,,Clear,210,2012-11-17 16:35:00
11:55 AM,55.4,41.0,58,30.20,10.0,SSW,17.3,23.0,N/A,,Clear,200,2012-11-17 17:55:00
12:15 PM,57.2,41.0,55,30.19,10.0,South,18.4,23.0,N/A,,Clear,190,2012-11-17 18:15:00
12:55 PM,60.8,41.0,48,30.16,10.0,SSW,17.3,23.0,N/A,,Clear,210,2012-11-17 18:55:00
1:15 PM,60.8,39.2,45,30.15,10.0,South,18.4,23.0,N/A,,Clear,190,2012-11-17 19:15:00
1:35 PM,60.8,39.2,45,30.15,10.0,South,17.3,24.2,N/A,,Clear,190,2012-11-17 19:35:00
1:55 PM,62.6,37.4,39,30.13,10.0,SSW,18.4,24.2,N/A,,Clear,210,2012-11-17 19:55:00
2:15 PM,62.6,37.4,39,30.13,10.0,SSW,18.4,24.2,N/A,,Clear,200,2012-11-17 20:15:00
2:35 PM,62.6,35.6,37,30.12,10.0,South,19.6,-,N/A,,Clear,190,2012-11-17 20:35:00
2:55 PM,62.6,37.4,39,30.12,10.0,SSW,19.6,24.2,N/A,,Clear,200,2012-11-17 20:55:00
3:15 PM,60.8,37.4,42,30.12,10.0,SSW,18.4,25.3,N/A,,Clear,200,2012-11-17 21:15:00
3:35 PM,60.8,35.6,39,30.12,10.0,South,18.4,-,N/A,,Clear,190,2012-11-17 21:35:00
3:55 PM,60.8,35.6,39,30.12,10.0,South,17.3,-,N/A,,Clear,190,2012-11-17 21:55:00
4:15 PM,60.8,37.4,42,30.12,10.0,South,19.6,24.2,N/A,,Clear,190,2012-11-17 22:15:00
4:35 PM,59.0,37.4,45,30.12,10.0,South,19.6,-,N/A,,Clear,190,2012-11-17 22:35:00
4:55 PM,59.0,37.4,45,30.12,10.0,SSW,18.4,-,N/A,,Clear,200,2012-11-17 22:55:00
5:15 PM,57.2,37.4,48,30.12,10.0,South,15.0,-,N/A,,Clear,190,2012-11-17 23:15:00
5:35 PM,55.4,37.4,51,30.12,10.0,South,11.5,-,N/A,,Clear,190,2012-11-17 23:35:00
5:55 PM,53.6,37.4,54,30.12,10.0,South,10.4,-,N/A,,Clear,180,2012-11-17 23:55:00
6:15 PM,51.8,37.4,58,30.12,10.0,South,10.4,-,N/A,,Clear,170,2012-11-18 00:15:00
6:35 PM,53.6,37.4,54,30.12,10.0,SSE,9.2,-,N/A,,Clear,160,2012-11-18 00:35:00
6:55 PM,53.6,39.2,58,30.12,10.0,SSE,15.0,-,N/A,,Clear,160,2012-11-18 00:55:00
7:15 PM,53.6,39.2,58,30.12,10.0,SSE,12.7,-,N/A,,Clear,160,2012-11-18 01:15:00
7:35 PM,51.8,39.2,62,30.12,10.0,South,11.5,-,N/A,,Clear,170,2012-11-18 01:35:00
7:55 PM,53.6,37.4,54,30.12,10.0,South,15.0,-,N/A,,Clear,170,2012-11-18 01:55:00
8:15 PM,53.6,37.4,54,30.12,10.0,South,15.0,-,N/A,,Clear,170,2012-11-18 02:15:00
8:35 PM,53.6,37.4,54,30.12,10.0,South,15.0,-,N/A,,Clear,170,2012-11-18 02:35:00
8:55 PM,51.8,37.4,58,30.13,10.0,South,15.0,-,N/A,,Clear,170,2012-11-18 02:55:00
9:15 PM,51.8,37.4,58,30.13,10.0,South,16.1,-,N/A,,Clear,180,2012-11-18 03:15:00
9:35 PM,51.8,37.4,58,30.13,10.0,South,13.8,-,N/A,,Clear,180,2012-11-18 03:35:00
9:55 PM,51.8,37.4,58,30.12,10.0,South,17.3,-,N/A,,Clear,190,2012-11-18 03:55:00
10:15 PM,51.8,37.4,58,30.12,10.0,South,16.1,-,N/A,,Clear,190,2012-11-18 04:15:00
10:35 PM,50.0,37.4,62,30.12,10.0,South,12.7,-,N/A,,Clear,180,2012-11-18 04:35:00
10:55 PM,50.0,37.4,62,30.12,10.0,South,12.7,-,N/A,,Clear,180,2012-11-18 04:55:00
11:15 PM,50.0,37.4,62,30.11,10.0,South,15.0,-,N/A,,Clear,180,2012-11-18 05:15:00
11:35 PM,50.0,39.2,66,30.11,10.0,South,13.8,-,N/A,,Clear,180,2012-11-18 05:35:00
11:55 PM,50.0,39.2,66,30.11,10.0,South,11.5,-,N/A,,Clear,180,2012-11-18 05:55:00